createdAt,value
2023-02-12T00:00:46.294Z,16.45
2023-02-12T00:05:41.824Z,15.90
2023-02-12T00:08:11.948Z,16.08
2023-02-12T00:10:43.534Z,17.50
2023-02-12T00:13:13.373Z,17.60
2023-02-12T00:15:44.072Z,17.55
2023-02-12T00:18:11.476Z,17.67
2023-02-12T00:20:43.626Z,19.15
2023-02-12T00:23:11.325Z,18.08
2023-02-12T00:25:41.460Z,19.30
2023-02-12T00:28:10.845Z,19.50
2023-02-12T00:30:37.902Z,19.50
2023-02-12T00:33:04.829Z,18.83
2023-02-12T00:35:31.874Z,18.92
2023-02-12T00:37:59.074Z,18.75
2023-02-12T00:40:28.077Z,18.50
2023-02-12T00:42:54.936Z,19.30
2023-02-12T00:45:24.265Z,18.55
2023-02-12T00:47:51.574Z,17.65
2023-02-12T00:50:20.667Z,18.77
2023-02-12T00:52:47.630Z,17.98
2023-02-12T00:55:16.897Z,17.90
2023-02-12T00:57:46.045Z,18.48
2023-02-12T01:00:14.713Z,17.58
2023-02-12T01:02:44.048Z,18.10
2023-02-12T01:05:13.452Z,18.75
2023-02-12T01:07:40.800Z,18.65
2023-02-12T01:10:08.600Z,18.00
2023-02-12T01:12:38.207Z,17.60
2023-02-12T01:15:13.515Z,17.75
2023-02-12T01:17:40.539Z,18.20
2023-02-12T01:20:13.457Z,18.35
2023-02-12T01:22:40.594Z,17.48
2023-02-12T01:25:08.132Z,17.83
2023-02-12T01:27:35.182Z,18.30
2023-02-12T01:30:02.227Z,17.67
2023-02-12T01:32:31.232Z,18.55
2023-02-12T01:35:00.447Z,18.23
2023-02-12T01:37:37.271Z,19.17
2023-02-12T01:40:08.146Z,19.15
2023-02-12T01:42:35.393Z,18.65
2023-02-12T01:45:14.515Z,17.88
2023-02-12T01:47:43.350Z,17.27
2023-02-12T01:50:17.798Z,18.48
2023-02-12T01:52:51.863Z,18.13
2023-02-12T01:55:21.054Z,17.85
2023-02-12T01:57:49.076Z,16.73
2023-02-12T02:00:19.363Z,17.67
2023-02-12T02:02:52.941Z,17.73
2023-02-12T02:05:44.594Z,17.63
2023-02-12T02:08:12.010Z,17.10
2023-02-12T02:10:41.438Z,18.25
2023-02-12T02:13:27.289Z,18.38
2023-02-12T02:15:59.926Z,18.38
2023-02-12T02:18:35.230Z,17.50
2023-02-12T02:21:24.318Z,16.85
2023-02-12T02:24:35.825Z,17.15
2023-02-12T02:27:31.652Z,17.38
2023-02-12T02:30:06.772Z,16.98
2023-02-12T02:32:46.695Z,17.80
2023-02-12T02:35:30.210Z,18.13
2023-02-12T02:38:10.937Z,18.50
2023-02-12T02:40:53.709Z,17.58
2023-02-12T02:43:35.255Z,19.17
2023-02-12T02:46:20.496Z,18.30
2023-02-12T02:48:53.343Z,20.10
2023-02-12T02:51:26.943Z,19.52
2023-02-12T02:54:01.713Z,19.67
2023-02-12T02:56:30.736Z,19.35
2023-02-12T02:59:03.818Z,19.75
2023-02-12T03:01:44.441Z,18.17
2023-02-12T03:04:19.701Z,19.35
2023-02-12T03:06:58.135Z,19.85
2023-02-12T03:09:35.689Z,18.67
2023-02-12T03:12:15.368Z,20.05
2023-02-12T03:14:52.166Z,18.58
2023-02-12T03:17:24.725Z,19.55
2023-02-12T03:20:24.742Z,18.90
2023-02-12T03:23:03.472Z,18.75
2023-02-12T03:25:39.949Z,19.90
2023-02-12T03:28:26.002Z,19.48
2023-02-12T03:31:12.153Z,20.67
2023-02-12T03:33:44.702Z,19.73
2023-02-12T03:36:45.347Z,19.77
2023-02-12T03:39:29.125Z,19.42
2023-02-12T03:42:20.612Z,20.27
2023-02-12T03:44:58.442Z,19.63
2023-02-12T03:47:38.195Z,20.13
2023-02-12T03:50:19.832Z,20.42
2023-02-12T03:52:50.133Z,21.15
2023-02-12T03:55:17.824Z,21.05
2023-02-12T03:57:50.425Z,20.85
2023-02-12T04:00:23.538Z,20.75
2023-02-12T04:02:51.585Z,19.80
2023-02-12T04:05:24.586Z,21.48
2023-02-12T04:07:56.665Z,20.30
2023-02-12T04:10:58.319Z,21.02
2023-02-12T04:13:49.628Z,21.30
2023-02-12T04:16:36.975Z,20.10
2023-02-12T04:19:54.337Z,19.70
2023-02-12T04:22:33.067Z,18.80
2023-02-12T04:25:14.649Z,18.83
2023-02-12T04:27:56.976Z,18.63
2023-02-12T04:30:41.165Z,18.58
2023-02-12T04:33:18.778Z,20.23
2023-02-12T04:35:55.475Z,20.08
2023-02-12T04:38:25.371Z,19.05
2023-02-12T04:40:52.976Z,18.25
2023-02-12T04:43:36.439Z,19.17
2023-02-12T04:46:05.401Z,19.17
2023-02-12T04:48:34.643Z,18.20
2023-02-12T04:51:02.064Z,18.90
2023-02-12T04:53:31.309Z,18.92
2023-02-12T04:55:58.455Z,18.20
2023-02-12T04:58:25.565Z,18.65
2023-02-12T05:00:52.480Z,18.70
2023-02-12T05:03:21.731Z,20.33
2023-02-12T05:05:48.613Z,19.52
2023-02-12T05:08:15.542Z,19.75
2023-02-12T05:10:44.645Z,20.08
2023-02-12T05:13:13.870Z,19.15
2023-02-12T05:15:40.885Z,21.02
2023-02-12T05:18:09.917Z,19.40
2023-02-12T05:20:39.059Z,19.23
2023-02-12T05:23:05.957Z,18.88
2023-02-12T05:25:32.801Z,19.35
2023-02-12T05:28:00.349Z,20.15
2023-02-12T05:30:27.629Z,19.35
2023-02-12T05:32:54.835Z,19.63
2023-02-12T05:35:21.724Z,20.45
2023-02-12T05:37:48.660Z,21.13
2023-02-12T05:40:20.096Z,21.55
2023-02-12T05:42:49.299Z,22.05
2023-02-12T05:45:16.255Z,20.50
2023-02-12T05:47:43.118Z,20.88
2023-02-12T05:50:10.408Z,20.40
2023-02-12T05:55:04.379Z,18.52
2023-02-12T05:57:31.261Z,18.70
2023-02-12T05:59:58.217Z,19.20
2023-02-12T06:02:25.110Z,19.63
2023-02-12T06:04:52.196Z,18.42
2023-02-12T06:07:21.623Z,19.48
2023-02-12T06:09:48.649Z,19.33
2023-02-12T06:12:15.638Z,19.38
2023-02-12T06:14:42.787Z,19.23
2023-02-12T06:17:09.759Z,18.52
2023-02-12T06:19:37.179Z,21.52
2023-02-12T06:24:33.413Z,20.45
2023-02-12T06:27:02.666Z,20.65
2023-02-12T06:29:31.975Z,20.67
2023-02-12T06:31:59.067Z,21.23
2023-02-12T06:34:26.346Z,20.70
2023-02-12T06:36:53.209Z,21.58
2023-02-12T06:39:23.013Z,20.75
2023-02-12T06:41:50.193Z,20.40
2023-02-12T06:44:19.450Z,20.85
2023-02-12T06:46:46.658Z,20.73
2023-02-12T06:49:15.090Z,18.85
2023-02-12T06:52:06.974Z,19.42
2023-02-12T06:54:34.298Z,18.63
2023-02-12T06:57:01.391Z,18.23
2023-02-12T06:59:28.405Z,19.67
2023-02-12T07:01:55.523Z,18.85
2023-02-12T07:04:22.573Z,19.38
2023-02-12T07:06:52.656Z,18.77
2023-02-12T07:09:19.621Z,18.60
2023-02-12T07:11:46.588Z,19.60
2023-02-12T07:14:17.427Z,18.83
2023-02-12T07:16:44.432Z,18.85
2023-02-12T07:19:14.289Z,18.73
2023-02-12T07:21:41.301Z,18.02
2023-02-12T07:24:11.929Z,17.38
2023-02-12T07:26:39.502Z,17.85
2023-02-12T07:29:06.956Z,18.63
2023-02-12T07:31:34.042Z,18.38
2023-02-12T07:34:01.177Z,17.85
2023-02-12T07:36:33.456Z,17.75
2023-02-12T07:39:04.239Z,17.83
2023-02-12T07:41:37.809Z,61.47
2023-02-12T07:44:10.927Z,22.00
2023-02-12T07:47:09.126Z,23.25
2023-02-12T07:49:58.153Z,26.50
2023-02-12T07:52:45.328Z,22.13
2023-02-12T07:55:20.220Z,22.70
2023-02-12T07:57:47.219Z,22.50
2023-02-12T08:00:23.649Z,20.98
2023-02-12T08:02:53.283Z,21.08
2023-02-12T08:05:20.904Z,20.95
2023-02-12T08:07:47.964Z,21.38
2023-02-12T08:10:15.065Z,23.38
2023-02-12T08:12:44.593Z,23.25
2023-02-12T08:15:11.407Z,23.45
2023-02-12T08:17:42.342Z,22.92
2023-02-12T08:20:12.348Z,21.20
2023-02-12T08:22:39.259Z,20.35
2023-02-12T08:25:09.050Z,20.70
2023-02-12T08:27:40.870Z,18.77
2023-02-12T08:30:08.464Z,15.40
2023-02-12T08:32:38.519Z,16.50
2023-02-12T08:35:05.878Z,16.23
2023-02-12T08:44:57.653Z,16.33
2023-02-12T08:49:51.352Z,16.25
2023-02-12T08:52:19.449Z,17.63
2023-02-12T08:54:48.845Z,17.98
2023-02-12T08:57:17.929Z,17.42
2023-02-12T08:59:45.048Z,24.60
2023-02-12T09:02:12.092Z,38.80
2023-02-12T09:04:40.090Z,20.75
2023-02-12T09:07:10.918Z,18.77
2023-02-12T09:09:38.023Z,19.30
2023-02-12T09:14:34.391Z,22.63
2023-02-12T09:17:01.362Z,24.70
2023-02-12T09:19:28.425Z,22.27
2023-02-12T09:21:56.790Z,22.30
2023-02-12T09:24:28.270Z,22.42
2023-02-12T09:26:55.929Z,21.73
2023-02-12T09:29:24.199Z,20.77
2023-02-12T09:31:56.675Z,20.67
2023-02-12T09:35:19.324Z,23.95
2023-02-12T09:37:47.949Z,19.77
2023-02-12T09:43:18.382Z,21.67
2023-02-12T09:45:58.542Z,19.25
2023-02-12T09:48:40.687Z,18.08
2023-02-12T09:51:09.362Z,18.75
2023-02-12T09:53:49.655Z,19.98
2023-02-12T09:56:21.072Z,19.40
2023-02-12T09:58:52.873Z,19.08
2023-02-12T10:01:22.087Z,17.38
2023-02-12T10:03:52.035Z,16.77
2023-02-12T10:06:24.623Z,17.55
2023-02-12T10:09:17.344Z,16.83
2023-02-12T10:11:54.024Z,17.38
2023-02-12T10:14:21.017Z,12.85
2023-02-12T10:17:18.367Z,12.75
2023-02-12T10:19:49.177Z,12.02
2023-02-12T10:22:37.554Z,13.45
2023-02-12T10:25:48.588Z,13.93
2023-02-12T10:28:21.034Z,12.00
2023-02-12T10:31:04.500Z,13.15
2023-02-12T10:33:35.610Z,12.13
2023-02-12T10:36:18.443Z,10.82
2023-02-12T10:38:53.297Z,10.55
2023-02-12T10:41:20.297Z,9.70
2023-02-12T10:43:49.981Z,11.52
2023-02-12T10:46:19.588Z,7.38
2023-02-12T10:48:59.022Z,7.55
2023-02-12T10:51:55.045Z,6.40
2023-02-12T10:54:44.534Z,6.75
2023-02-12T10:57:21.838Z,7.43
2023-02-12T10:59:51.034Z,5.90
2023-02-12T11:02:28.624Z,5.63
2023-02-12T11:04:58.058Z,5.93
2023-02-12T11:07:26.301Z,6.07
2023-02-12T11:09:57.287Z,5.50
2023-02-12T11:12:42.433Z,5.57
2023-02-12T11:15:16.407Z,5.60
2023-02-12T11:18:05.785Z,5.93
2023-02-12T11:20:42.138Z,5.63
2023-02-12T11:23:24.218Z,6.50
2023-02-12T11:26:07.593Z,6.40
2023-02-12T11:28:37.143Z,6.70
2023-02-12T11:31:15.398Z,6.88
2023-02-12T11:33:42.703Z,7.00
2023-02-12T11:39:07.756Z,7.15
2023-02-12T11:41:40.697Z,6.30
2023-02-12T11:44:13.450Z,6.90
2023-02-12T11:46:47.352Z,6.10
2023-02-12T11:49:23.264Z,7.38
2023-02-12T11:51:55.320Z,6.45
2023-02-12T11:54:28.967Z,6.50
2023-02-12T11:57:00.675Z,7.10
2023-02-12T11:59:27.602Z,7.15
2023-02-12T12:01:56.103Z,5.85
2023-02-12T12:04:29.035Z,6.32
2023-02-12T12:07:22.666Z,5.90
2023-02-12T12:10:19.667Z,5.55
2023-02-12T12:12:56.849Z,5.25
2023-02-12T12:15:47.587Z,5.85
2023-02-12T12:56:29.583Z,4.70
2023-02-12T12:59:15.444Z,5.25
2023-02-12T13:02:23.370Z,5.68
2023-02-12T13:05:24.291Z,5.15
2023-02-12T13:08:05.285Z,5.28
2023-02-12T13:11:02.261Z,5.30
2023-02-12T13:13:29.186Z,4.90
2023-02-12T13:16:04.517Z,5.25
2023-02-12T13:18:54.810Z,4.70
2023-02-12T13:21:36.515Z,4.88
2023-02-12T13:24:12.255Z,4.30
2023-02-12T13:26:58.796Z,4.15
2023-02-12T13:29:30.902Z,4.80
2023-02-12T13:32:05.458Z,4.55
2023-02-12T13:34:35.715Z,4.38
2023-02-12T13:37:05.220Z,5.00
2023-02-12T13:39:37.698Z,5.00
2023-02-12T13:42:07.421Z,4.60
2023-02-12T13:44:51.426Z,5.57
2023-02-12T13:47:52.396Z,13.00
2023-02-12T13:50:43.450Z,4.68
2023-02-12T13:53:13.497Z,5.07
2023-02-12T13:56:02.293Z,4.82
2023-02-12T13:58:35.426Z,4.85
2023-02-12T14:01:07.788Z,5.15
2023-02-12T14:03:37.092Z,5.72
2023-02-12T14:06:13.096Z,4.80
2023-02-12T14:08:43.977Z,5.20
2023-02-12T14:11:17.619Z,5.65
2023-02-12T14:13:50.549Z,4.72
2023-02-12T14:16:29.741Z,4.63
2023-02-12T14:19:34.583Z,4.78
2023-02-12T14:22:22.599Z,4.82
2023-02-12T14:24:56.602Z,4.22
2023-02-12T14:27:33.902Z,4.95
2023-02-12T14:30:07.803Z,4.80
2023-02-12T14:32:55.166Z,4.80
2023-02-12T14:35:36.719Z,5.95
2023-02-12T14:38:11.803Z,4.90
2023-02-12T14:40:50.191Z,5.45
2023-02-12T14:43:33.798Z,5.20
2023-02-12T14:46:22.780Z,4.78
2023-02-12T14:48:56.165Z,4.97
2023-02-12T14:51:48.498Z,4.85
2023-02-12T14:54:37.144Z,4.95
2023-02-12T14:57:32.680Z,5.13
2023-02-12T15:00:31.196Z,4.82
2023-02-12T15:03:07.334Z,4.78
2023-02-12T15:05:53.404Z,5.25
2023-02-12T15:08:41.467Z,4.97
2023-02-12T15:11:35.630Z,5.53
2023-02-12T15:14:27.226Z,5.45
2023-02-12T15:17:14.427Z,5.00
2023-02-12T15:20:02.783Z,4.60
2023-02-12T15:22:43.277Z,5.13
2023-02-12T15:25:25.272Z,4.88
2023-02-12T15:27:58.443Z,5.13
2023-02-12T15:30:33.003Z,4.95
2023-02-12T15:33:04.281Z,5.10
2023-02-12T15:35:44.295Z,5.05
2023-02-12T15:38:21.935Z,4.40
2023-02-12T15:40:57.538Z,4.60
2023-02-12T15:43:34.975Z,10.52
2023-02-12T15:46:07.748Z,4.18
2023-02-12T15:48:39.724Z,4.50
2023-02-12T15:51:20.488Z,4.13
2023-02-12T15:53:50.394Z,4.50
2023-02-12T15:56:20.528Z,4.32
2023-02-12T15:58:53.768Z,4.35
2023-02-12T16:01:27.336Z,4.90
2023-02-12T16:04:03.186Z,4.05
2023-02-12T16:06:39.383Z,3.80
2023-02-12T16:09:34.099Z,4.75
2023-02-12T16:12:13.578Z,4.30
2023-02-12T16:14:50.089Z,8.75
2023-02-12T16:17:26.164Z,4.20
2023-02-12T16:19:58.315Z,5.45
2023-02-12T16:22:30.888Z,4.25
2023-02-12T16:25:01.306Z,4.13
2023-02-12T16:27:36.265Z,4.15
2023-02-12T16:30:08.559Z,4.22
2023-02-12T16:32:40.893Z,4.10
2023-02-12T16:35:10.708Z,4.38
2023-02-12T16:37:37.739Z,3.97
2023-02-12T16:40:21.841Z,4.10
2023-02-12T16:42:48.795Z,3.53
2023-02-12T16:45:28.171Z,3.67
2023-02-12T16:48:05.370Z,3.60
2023-02-12T16:50:34.190Z,3.72
2023-02-12T16:53:07.035Z,3.80
2023-02-12T16:55:38.467Z,3.92
2023-02-12T16:58:05.543Z,4.47
2023-02-12T17:00:34.734Z,3.75
2023-02-12T17:03:01.796Z,3.95
2023-02-12T17:05:28.782Z,4.30
2023-02-12T17:07:55.804Z,4.65
2023-02-12T17:10:22.736Z,6.15
2023-02-12T17:12:52.491Z,4.20
2023-02-12T17:15:33.470Z,4.35
2023-02-12T17:18:00.432Z,4.10
2023-02-12T17:20:32.037Z,4.32
2023-02-12T17:23:01.203Z,4.55
2023-02-12T17:25:31.462Z,5.63
2023-02-12T17:27:58.950Z,4.50
2023-02-12T17:30:26.801Z,4.65
2023-02-12T17:32:53.812Z,5.10
2023-02-12T17:35:20.893Z,4.63
2023-02-12T17:37:53.125Z,4.40
2023-02-12T17:40:20.572Z,4.80
2023-02-12T17:42:47.617Z,4.45
2023-02-12T17:45:14.834Z,4.60
2023-02-12T17:47:41.856Z,5.38
2023-02-12T17:50:14.438Z,5.22
2023-02-12T17:52:43.597Z,5.30
2023-02-12T17:55:14.220Z,6.18
2023-02-12T17:57:43.162Z,6.03
2023-02-12T18:00:12.111Z,5.53
2023-02-12T18:02:39.420Z,6.35
2023-02-12T18:07:38.082Z,5.32
2023-02-12T18:10:10.085Z,5.55
2023-02-12T18:12:40.625Z,5.00
2023-02-12T18:15:10.648Z,5.75
2023-02-12T18:17:41.133Z,5.63
2023-02-12T18:20:09.217Z,6.63
2023-02-12T18:22:36.170Z,9.25
2023-02-12T18:25:04.035Z,9.98
2023-02-12T18:27:36.722Z,8.23
2023-02-12T18:30:03.993Z,9.10
2023-02-12T18:32:33.921Z,8.95
2023-02-12T18:35:03.187Z,6.80
2023-02-12T18:37:30.076Z,7.00
2023-02-12T18:39:57.120Z,7.10
2023-02-12T18:42:28.492Z,8.27
2023-02-12T18:44:55.512Z,7.85
2023-02-12T18:47:22.444Z,7.70
2023-02-12T18:49:49.442Z,6.18
2023-02-12T18:52:16.483Z,6.00
2023-02-12T18:54:45.609Z,5.75
2023-02-12T18:57:12.544Z,5.82
2023-02-12T18:59:41.683Z,6.22
2023-02-12T19:02:08.754Z,6.20
2023-02-12T19:04:35.990Z,6.07
2023-02-12T19:09:35.383Z,9.18
2023-02-12T19:12:02.802Z,7.82
2023-02-12T19:16:59.290Z,6.53
2023-02-12T19:19:26.938Z,6.43
2023-02-12T19:21:53.773Z,5.65
2023-02-12T19:24:20.937Z,6.80
2023-02-12T19:26:52.046Z,6.97
2023-02-12T19:29:19.069Z,6.47
2023-02-12T19:31:48.836Z,6.43
2023-02-12T19:34:19.654Z,6.35
2023-02-12T19:36:50.016Z,6.95
2023-02-12T19:39:20.340Z,6.95
2023-02-12T19:41:47.954Z,7.63
2023-02-12T19:44:21.281Z,7.38
2023-02-12T19:46:51.671Z,7.90
2023-02-12T19:49:27.799Z,6.95
2023-02-12T19:51:55.431Z,6.78
2023-02-12T19:54:23.934Z,6.40
2023-02-12T19:56:52.829Z,6.93
2023-02-12T19:59:21.597Z,8.23
2023-02-12T20:01:51.524Z,9.85
2023-02-12T20:04:20.970Z,9.40
2023-02-12T20:07:10.914Z,7.82
2023-02-12T20:09:38.241Z,7.55
2023-02-12T20:12:05.504Z,7.78
2023-02-12T20:17:01.301Z,9.70
2023-02-12T20:19:31.407Z,8.63
2023-02-12T20:22:01.515Z,9.13
2023-02-12T20:24:31.637Z,8.65
2023-02-12T20:27:01.040Z,8.45
2023-02-12T20:29:28.998Z,9.23
2023-02-12T20:31:56.630Z,10.88
2023-02-12T20:34:23.832Z,10.35
2023-02-12T20:36:50.984Z,12.77
2023-02-12T20:39:20.094Z,10.30
2023-02-12T20:41:47.952Z,10.88
2023-02-12T20:44:18.650Z,10.00
2023-02-12T20:46:46.973Z,9.93
2023-02-12T20:49:18.504Z,10.50
2023-02-12T20:51:46.376Z,11.07
2023-02-12T20:54:14.038Z,10.18
2023-02-12T20:56:41.871Z,10.82
2023-02-12T20:59:09.543Z,9.40
2023-02-12T21:01:57.042Z,8.65
2023-02-12T21:04:24.844Z,8.55
2023-02-12T21:06:58.300Z,7.75
2023-02-12T21:09:25.654Z,7.60
2023-02-12T21:11:53.183Z,7.60
2023-02-12T21:14:22.836Z,7.53
2023-02-12T21:16:51.977Z,8.43
2023-02-12T21:19:19.652Z,7.82
2023-02-12T21:21:48.080Z,8.07
2023-02-12T21:24:21.398Z,7.40
2023-02-12T21:26:52.951Z,8.85
2023-02-12T21:29:20.865Z,8.18
2023-02-12T21:31:49.995Z,9.82
2023-02-12T21:34:22.684Z,11.35
2023-02-12T21:36:51.051Z,11.15
2023-02-12T21:39:29.811Z,11.80
2023-02-12T21:42:02.930Z,11.02
2023-02-12T21:44:36.157Z,10.32
2023-02-12T21:47:12.346Z,9.40
2023-02-12T21:49:39.865Z,9.45
2023-02-12T21:52:06.977Z,9.45
2023-02-12T21:54:46.276Z,14.88
2023-02-12T21:57:19.941Z,14.25
2023-02-12T21:59:47.506Z,13.23
2023-02-12T22:02:21.013Z,14.45
2023-02-12T22:04:49.966Z,12.93
2023-02-12T22:07:17.227Z,12.68
2023-02-12T22:09:45.439Z,10.10
2023-02-12T22:12:12.661Z,10.38
2023-02-12T22:14:39.631Z,9.40
2023-02-12T22:17:06.567Z,9.40
2023-02-12T22:19:36.045Z,8.27
2023-02-12T22:22:03.143Z,8.43
2023-02-12T22:24:32.321Z,8.43
2023-02-12T22:27:00.136Z,8.93
2023-02-12T22:29:29.294Z,8.70
2023-02-12T22:31:56.409Z,8.93
2023-02-12T22:34:23.558Z,7.80
2023-02-12T22:36:50.552Z,8.50
2023-02-12T22:39:17.925Z,8.80
2023-02-12T22:41:44.985Z,9.27
2023-02-12T22:44:13.489Z,9.65
2023-02-12T22:46:44.134Z,9.68
2023-02-12T22:53:29.840Z,9.20
2023-02-12T22:58:24.054Z,9.90
2023-02-12T23:03:18.670Z,9.65
2023-02-12T23:05:46.190Z,8.73
2023-02-12T23:08:13.105Z,7.70
2023-02-12T23:10:40.522Z,8.48
2023-02-12T23:13:07.394Z,7.70
2023-02-12T23:15:34.388Z,8.93
2023-02-12T23:18:04.294Z,7.93
2023-02-12T23:20:31.436Z,8.60
2023-02-12T23:22:58.757Z,9.50
2023-02-12T23:25:25.892Z,7.72
2023-02-12T23:27:53.142Z,8.88
2023-02-12T23:30:20.333Z,9.32
2023-02-12T23:32:47.510Z,8.63
2023-02-12T23:35:14.693Z,8.07
2023-02-12T23:37:41.681Z,7.85
2023-02-12T23:40:09.430Z,8.75
2023-02-12T23:42:36.413Z,9.55
2023-02-12T23:45:03.710Z,10.23
2023-02-12T23:47:30.818Z,9.52
2023-02-12T23:49:57.807Z,9.27
2023-02-12T23:52:24.851Z,9.05
2023-02-12T23:54:54.524Z,10.02
2023-02-12T23:57:21.624Z,11.07
2023-02-12T23:59:48.702Z,10.73
